sensor_id;sensor_type;location;lat;lon;timestamp;temperature;humidity
64937;SHT30;51452;47.698;19.050;2023-03-23T00:02:29;11.96;54.16
64937;SHT30;51452;47.698;19.050;2023-03-23T00:04:58;11.91;54.65
64937;SHT30;51452;47.698;19.050;2023-03-23T00:07:25;11.79;54.94
64937;SHT30;51452;47.698;19.050;2023-03-23T00:09:53;11.77;55.04
64937;SHT30;51452;47.698;19.050;2023-03-23T00:12:23;11.74;55.18
64937;SHT30;51452;47.698;19.050;2023-03-23T00:15:01;11.70;55.35
64937;SHT30;51452;47.698;19.050;2023-03-23T00:17:28;11.63;55.40
64937;SHT30;51452;47.698;19.050;2023-03-23T00:19:53;11.54;55.65
64937;SHT30;51452;47.698;19.050;2023-03-23T00:22:18;11.50;55.79
64937;SHT30;51452;47.698;19.050;2023-03-23T00:24:46;11.41;55.98
64937;SHT30;51452;47.698;19.050;2023-03-23T00:27:12;11.31;55.99
64937;SHT30;51452;47.698;19.050;2023-03-23T00:29:41;11.22;56.75
64937;SHT30;51452;47.698;19.050;2023-03-23T00:32:08;11.22;57.09
64937;SHT30;51452;47.698;19.050;2023-03-23T00:34:39;11.14;57.64
64937;SHT30;51452;47.698;19.050;2023-03-23T00:37:06;11.16;57.63
64937;SHT30;51452;47.698;19.050;2023-03-23T00:39:33;11.14;58.19
64937;SHT30;51452;47.698;19.050;2023-03-23T00:41:58;11.16;58.24
64937;SHT30;51452;47.698;19.050;2023-03-23T00:44:30;11.12;58.50
64937;SHT30;51452;47.698;19.050;2023-03-23T00:46:56;11.13;58.67
64937;SHT30;51452;47.698;19.050;2023-03-23T00:49:22;11.12;58.80
64937;SHT30;51452;47.698;19.050;2023-03-23T00:51:53;11.02;58.96
64937;SHT30;51452;47.698;19.050;2023-03-23T00:54:19;11.02;59.12
64937;SHT30;51452;47.698;19.050;2023-03-23T00:56:45;10.97;59.08
64937;SHT30;51452;47.698;19.050;2023-03-23T00:59:11;11.00;59.29
64937;SHT30;51452;47.698;19.050;2023-03-23T01:01:36;11.04;58.93
64937;SHT30;51452;47.698;19.050;2023-03-23T01:04:03;11.07;58.93
64937;SHT30;51452;47.698;19.050;2023-03-23T01:06:31;11.03;58.95
64937;SHT30;51452;47.698;19.050;2023-03-23T01:08:58;10.92;59.09
64937;SHT30;51452;47.698;19.050;2023-03-23T01:11:24;11.02;58.89
64937;SHT30;51452;47.698;19.050;2023-03-23T01:13:50;11.02;58.83
64937;SHT30;51452;47.698;19.050;2023-03-23T01:16:16;11.04;58.60
64937;SHT30;51452;47.698;19.050;2023-03-23T01:18:41;11.04;58.50
64937;SHT30;51452;47.698;19.050;2023-03-23T01:21:09;11.03;58.22
64937;SHT30;51452;47.698;19.050;2023-03-23T01:23:36;10.99;58.26
64937;SHT30;51452;47.698;19.050;2023-03-23T01:26:15;10.96;58.33
64937;SHT30;51452;47.698;19.050;2023-03-23T01:28:42;10.91;58.32
64937;SHT30;51452;47.698;19.050;2023-03-23T01:31:10;10.96;58.17
64937;SHT30;51452;47.698;19.050;2023-03-23T01:33:38;10.95;58.11
64937;SHT30;51452;47.698;19.050;2023-03-23T01:36:06;10.82;58.43
64937;SHT30;51452;47.698;19.050;2023-03-23T01:38:33;10.85;58.37
64937;SHT30;51452;47.698;19.050;2023-03-23T01:41:00;10.91;57.75
64937;SHT30;51452;47.698;19.050;2023-03-23T01:43:26;10.95;57.84
64937;SHT30;51452;47.698;19.050;2023-03-23T01:45:52;10.96;56.27
64937;SHT30;51452;47.698;19.050;2023-03-23T01:48:32;11.10;55.59
64937;SHT30;51452;47.698;19.050;2023-03-23T01:51:10;11.28;55.56
64937;SHT30;51452;47.698;19.050;2023-03-23T01:53:43;11.30;54.85
64937;SHT30;51452;47.698;19.050;2023-03-23T01:56:09;11.30;54.40
64937;SHT30;51452;47.698;19.050;2023-03-23T01:58:39;11.43;54.23
64937;SHT30;51452;47.698;19.050;2023-03-23T02:01:08;11.47;53.91
64937;SHT30;51452;47.698;19.050;2023-03-23T02:03:37;11.53;53.53
64937;SHT30;51452;47.698;19.050;2023-03-23T02:06:05;11.55;53.23
64937;SHT30;51452;47.698;19.050;2023-03-23T02:08:31;11.60;53.18
64937;SHT30;51452;47.698;19.050;2023-03-23T02:10:58;11.64;53.33
64937;SHT30;51452;47.698;19.050;2023-03-23T02:13:24;11.68;53.42
64937;SHT30;51452;47.698;19.050;2023-03-23T02:18:48;11.40;54.38
64937;SHT30;51452;47.698;19.050;2023-03-23T02:29:51;10.75;56.31
64937;SHT30;51452;47.698;19.050;2023-03-23T02:35:32;10.58;56.51
64937;SHT30;51452;47.698;19.050;2023-03-23T02:38:08;10.51;56.75
64937;SHT30;51452;47.698;19.050;2023-03-23T02:40:41;10.44;56.53
64937;SHT30;51452;47.698;19.050;2023-03-23T02:43:12;10.38;57.74
64937;SHT30;51452;47.698;19.050;2023-03-23T02:45:39;10.33;57.77
64937;SHT30;51452;47.698;19.050;2023-03-23T02:48:08;10.30;58.13
64937;SHT30;51452;47.698;19.050;2023-03-23T02:50:35;10.31;58.05
64937;SHT30;51452;47.698;19.050;2023-03-23T02:53:04;10.27;57.92
64937;SHT30;51452;47.698;19.050;2023-03-23T02:55:32;10.18;58.16
64937;SHT30;51452;47.698;19.050;2023-03-23T02:57:58;10.11;58.70
64937;SHT30;51452;47.698;19.050;2023-03-23T03:00:27;10.11;59.26
64937;SHT30;51452;47.698;19.050;2023-03-23T03:02:54;10.11;59.17
64937;SHT30;51452;47.698;19.050;2023-03-23T03:18:46;10.04;59.62
64937;SHT30;51452;47.698;19.050;2023-03-23T03:21:14;10.03;59.08
64937;SHT30;51452;47.698;19.050;2023-03-23T03:23:43;10.03;59.79
64937;SHT30;51452;47.698;19.050;2023-03-23T03:26:11;10.01;59.96
64937;SHT30;51452;47.698;19.050;2023-03-23T03:28:38;9.95;59.85
64937;SHT30;51452;47.698;19.050;2023-03-23T03:31:05;9.93;60.08
64937;SHT30;51452;47.698;19.050;2023-03-23T03:33:32;9.93;60.31
64937;SHT30;51452;47.698;19.050;2023-03-23T03:36:03;9.93;60.35
64937;SHT30;51452;47.698;19.050;2023-03-23T03:38:44;9.87;59.95
64937;SHT30;51452;47.698;19.050;2023-03-23T03:41:10;9.83;60.77
64937;SHT30;51452;47.698;19.050;2023-03-23T03:43:35;9.83;60.76
64937;SHT30;51452;47.698;19.050;2023-03-23T03:46:01;9.87;60.32
64937;SHT30;51452;47.698;19.050;2023-03-23T03:48:27;9.79;60.51
64937;SHT30;51452;47.698;19.050;2023-03-23T03:50:52;9.67;60.83
64937;SHT30;51452;47.698;19.050;2023-03-23T03:53:18;9.64;61.16
64937;SHT30;51452;47.698;19.050;2023-03-23T03:55:43;9.63;61.88
64937;SHT30;51452;47.698;19.050;2023-03-23T03:58:10;9.72;61.52
64937;SHT30;51452;47.698;19.050;2023-03-23T04:00:36;9.77;61.30
64937;SHT30;51452;47.698;19.050;2023-03-23T04:03:01;9.69;60.70
64937;SHT30;51452;47.698;19.050;2023-03-23T04:05:26;9.69;61.27
64937;SHT30;51452;47.698;19.050;2023-03-23T04:07:54;9.64;61.48
64937;SHT30;51452;47.698;19.050;2023-03-23T04:10:27;9.66;61.54
64937;SHT30;51452;47.698;19.050;2023-03-23T04:12:52;9.63;60.83
64937;SHT30;51452;47.698;19.050;2023-03-23T04:15:18;9.55;61.09
64937;SHT30;51452;47.698;19.050;2023-03-23T04:17:44;9.45;61.50
64937;SHT30;51452;47.698;19.050;2023-03-23T04:20:10;9.42;61.88
64937;SHT30;51452;47.698;19.050;2023-03-23T04:22:52;9.45;62.30
64937;SHT30;51452;47.698;19.050;2023-03-23T04:25:20;9.50;61.76
64937;SHT30;51452;47.698;19.050;2023-03-23T04:27:46;9.52;61.84
64937;SHT30;51452;47.698;19.050;2023-03-23T04:30:21;9.56;62.02
64937;SHT30;51452;47.698;19.050;2023-03-23T04:32:49;9.59;61.99
64937;SHT30;51452;47.698;19.050;2023-03-23T04:35:23;9.55;61.92
64937;SHT30;51452;47.698;19.050;2023-03-23T04:37:52;9.52;61.95
64937;SHT30;51452;47.698;19.050;2023-03-23T04:40:19;9.46;62.52
64937;SHT30;51452;47.698;19.050;2023-03-23T04:42:45;9.56;62.07
64937;SHT30;51452;47.698;19.050;2023-03-23T04:45:17;9.55;62.00
64937;SHT30;51452;47.698;19.050;2023-03-23T04:47:49;9.42;62.41
64937;SHT30;51452;47.698;19.050;2023-03-23T04:50:21;9.46;62.35
64937;SHT30;51452;47.698;19.050;2023-03-23T04:52:49;9.52;62.14
64937;SHT30;51452;47.698;19.050;2023-03-23T04:55:17;9.55;62.19
64937;SHT30;51452;47.698;19.050;2023-03-23T04:57:44;9.50;62.35
64937;SHT30;51452;47.698;19.050;2023-03-23T05:00:10;9.53;62.39
64937;SHT30;51452;47.698;19.050;2023-03-23T05:02:42;9.56;62.16
64937;SHT30;51452;47.698;19.050;2023-03-23T05:05:10;9.56;62.38
64937;SHT30;51452;47.698;19.050;2023-03-23T05:07:38;9.59;62.73
64937;SHT30;51452;47.698;19.050;2023-03-23T05:10:04;9.62;63.17
64937;SHT30;51452;47.698;19.050;2023-03-23T05:12:30;9.62;63.09
64937;SHT30;51452;47.698;19.050;2023-03-23T05:14:56;9.66;63.13
64937;SHT30;51452;47.698;19.050;2023-03-23T05:17:21;9.67;63.41
64937;SHT30;51452;47.698;19.050;2023-03-23T05:19:52;9.69;62.86
64937;SHT30;51452;47.698;19.050;2023-03-23T05:22:18;9.79;62.98
64937;SHT30;51452;47.698;19.050;2023-03-23T05:24:46;9.82;62.50
64937;SHT30;51452;47.698;19.050;2023-03-23T05:27:12;9.86;62.89
64937;SHT30;51452;47.698;19.050;2023-03-23T05:29:38;9.93;62.81
64937;SHT30;51452;47.698;19.050;2023-03-23T05:32:07;9.97;62.97
64937;SHT30;51452;47.698;19.050;2023-03-23T05:34:35;10.03;62.75
64937;SHT30;51452;47.698;19.050;2023-03-23T05:37:02;10.05;62.78
64937;SHT30;51452;47.698;19.050;2023-03-23T05:39:28;10.08;62.69
64937;SHT30;51452;47.698;19.050;2023-03-23T05:41:54;10.15;62.92
64937;SHT30;51452;47.698;19.050;2023-03-23T05:44:20;10.30;61.59
64937;SHT30;51452;47.698;19.050;2023-03-23T05:46:46;10.35;61.08
64937;SHT30;51452;47.698;19.050;2023-03-23T05:49:13;10.48;60.58
64937;SHT30;51452;47.698;19.050;2023-03-23T05:51:39;10.54;60.82
64937;SHT30;51452;47.698;19.050;2023-03-23T05:54:05;10.61;60.61
64937;SHT30;51452;47.698;19.050;2023-03-23T05:56:30;10.66;59.83
64937;SHT30;51452;47.698;19.050;2023-03-23T05:58:56;10.71;59.72
64937;SHT30;51452;47.698;19.050;2023-03-23T06:01:21;10.83;59.40
64937;SHT30;51452;47.698;19.050;2023-03-23T06:03:48;10.95;59.58
64937;SHT30;51452;47.698;19.050;2023-03-23T06:06:16;11.00;59.54
64937;SHT30;51452;47.698;19.050;2023-03-23T06:08:43;11.07;58.70
64937;SHT30;51452;47.698;19.050;2023-03-23T06:11:09;11.13;58.79
64937;SHT30;51452;47.698;19.050;2023-03-23T06:13:35;11.17;58.40
64937;SHT30;51452;47.698;19.050;2023-03-23T06:16:01;11.19;58.30
64937;SHT30;51452;47.698;19.050;2023-03-23T06:18:27;11.22;58.11
64937;SHT30;51452;47.698;19.050;2023-03-23T06:20:53;11.33;58.10
64937;SHT30;51452;47.698;19.050;2023-03-23T06:23:19;11.37;58.77
64937;SHT30;51452;47.698;19.050;2023-03-23T06:25:44;11.44;58.27
64937;SHT30;51452;47.698;19.050;2023-03-23T06:28:10;11.47;58.03
64937;SHT30;51452;47.698;19.050;2023-03-23T06:30:36;11.54;57.85
64937;SHT30;51452;47.698;19.050;2023-03-23T06:33:02;11.64;57.64
64937;SHT30;51452;47.698;19.050;2023-03-23T06:35:31;11.67;57.85
64937;SHT30;51452;47.698;19.050;2023-03-23T06:37:57;11.70;57.51
64937;SHT30;51452;47.698;19.050;2023-03-23T06:40:26;11.77;57.54
64937;SHT30;51452;47.698;19.050;2023-03-23T06:42:52;11.84;57.29
64937;SHT30;51452;47.698;19.050;2023-03-23T06:45:18;11.89;57.14
64937;SHT30;51452;47.698;19.050;2023-03-23T06:47:45;11.96;57.33
64937;SHT30;51452;47.698;19.050;2023-03-23T06:50:15;12.01;57.29
64937;SHT30;51452;47.698;19.050;2023-03-23T06:52:40;12.14;57.23
64937;SHT30;51452;47.698;19.050;2023-03-23T06:55:06;12.18;57.53
64937;SHT30;51452;47.698;19.050;2023-03-23T06:57:32;12.21;57.43
64937;SHT30;51452;47.698;19.050;2023-03-23T06:59:57;12.37;54.80
64937;SHT30;51452;47.698;19.050;2023-03-23T07:02:23;12.42;55.92
64937;SHT30;51452;47.698;19.050;2023-03-23T07:04:48;12.45;55.00
64937;SHT30;51452;47.698;19.050;2023-03-23T07:07:14;12.47;54.42
64937;SHT30;51452;47.698;19.050;2023-03-23T07:09:43;12.52;53.95
64937;SHT30;51452;47.698;19.050;2023-03-23T07:12:09;12.46;53.35
64937;SHT30;51452;47.698;19.050;2023-03-23T07:14:35;12.53;53.23
64937;SHT30;51452;47.698;19.050;2023-03-23T07:17:02;12.60;53.43
64937;SHT30;51452;47.698;19.050;2023-03-23T07:19:28;12.66;53.48
64937;SHT30;51452;47.698;19.050;2023-03-23T07:21:53;12.70;54.41
64937;SHT30;51452;47.698;19.050;2023-03-23T07:24:19;12.83;54.55
64937;SHT30;51452;47.698;19.050;2023-03-23T07:26:44;12.85;54.72
64937;SHT30;51452;47.698;19.050;2023-03-23T07:29:10;12.93;54.60
64937;SHT30;51452;47.698;19.050;2023-03-23T07:31:35;13.04;54.33
64937;SHT30;51452;47.698;19.050;2023-03-23T07:34:02;13.11;54.22
64937;SHT30;51452;47.698;19.050;2023-03-23T07:36:28;13.19;53.93
64937;SHT30;51452;47.698;19.050;2023-03-23T07:38:54;13.21;53.91
64937;SHT30;51452;47.698;19.050;2023-03-23T07:41:20;13.29;54.00
64937;SHT30;51452;47.698;19.050;2023-03-23T07:43:46;13.36;53.83
64937;SHT30;51452;47.698;19.050;2023-03-23T07:46:12;13.46;53.72
64937;SHT30;51452;47.698;19.050;2023-03-23T07:48:38;13.48;53.82
64937;SHT30;51452;47.698;19.050;2023-03-23T07:51:04;13.55;53.69
64937;SHT30;51452;47.698;19.050;2023-03-23T07:53:30;13.61;54.02
64937;SHT30;51452;47.698;19.050;2023-03-23T07:55:55;13.66;53.68
64937;SHT30;51452;47.698;19.050;2023-03-23T07:58:20;13.65;53.15
64937;SHT30;51452;47.698;19.050;2023-03-23T08:00:46;13.70;53.40
64937;SHT30;51452;47.698;19.050;2023-03-23T08:03:14;13.77;52.94
64937;SHT30;51452;47.698;19.050;2023-03-23T08:05:40;13.80;52.44
64937;SHT30;51452;47.698;19.050;2023-03-23T08:08:08;13.85;53.10
64937;SHT30;51452;47.698;19.050;2023-03-23T08:10:34;13.87;52.78
64937;SHT30;51452;47.698;19.050;2023-03-23T08:13:00;13.86;52.51
64937;SHT30;51452;47.698;19.050;2023-03-23T08:15:25;13.89;52.49
64937;SHT30;51452;47.698;19.050;2023-03-23T08:17:51;13.89;52.55
64937;SHT30;51452;47.698;19.050;2023-03-23T08:20:18;14.00;51.74
64937;SHT30;51452;47.698;19.050;2023-03-23T08:22:50;14.03;51.70
64937;SHT30;51452;47.698;19.050;2023-03-23T08:25:18;14.14;51.57
64937;SHT30;51452;47.698;19.050;2023-03-23T08:27:44;14.17;51.84
64937;SHT30;51452;47.698;19.050;2023-03-23T08:30:16;14.21;51.91
64937;SHT30;51452;47.698;19.050;2023-03-23T08:32:42;14.33;51.97
64937;SHT30;51452;47.698;19.050;2023-03-23T08:35:11;14.41;52.12
64937;SHT30;51452;47.698;19.050;2023-03-23T08:37:38;14.48;51.36
64937;SHT30;51452;47.698;19.050;2023-03-23T08:40:07;14.48;50.97
64937;SHT30;51452;47.698;19.050;2023-03-23T08:42:35;14.57;50.96
64937;SHT30;51452;47.698;19.050;2023-03-23T08:45:00;14.61;51.04
64937;SHT30;51452;47.698;19.050;2023-03-23T08:47:26;14.67;51.22
64937;SHT30;51452;47.698;19.050;2023-03-23T08:49:52;14.74;50.96
64937;SHT30;51452;47.698;19.050;2023-03-23T08:52:19;14.84;50.83
64937;SHT30;51452;47.698;19.050;2023-03-23T08:54:46;14.76;50.43
64937;SHT30;51452;47.698;19.050;2023-03-23T08:57:13;14.85;50.40
64937;SHT30;51452;47.698;19.050;2023-03-23T08:59:40;14.91;50.38
64937;SHT30;51452;47.698;19.050;2023-03-23T09:02:09;14.95;50.40
64937;SHT30;51452;47.698;19.050;2023-03-23T09:04:35;15.03;49.92
64937;SHT30;51452;47.698;19.050;2023-03-23T09:07:01;15.05;50.72
64937;SHT30;51452;47.698;19.050;2023-03-23T09:09:27;15.15;49.91
64937;SHT30;51452;47.698;19.050;2023-03-23T09:11:53;15.15;50.31
64937;SHT30;51452;47.698;19.050;2023-03-23T09:14:19;15.35;49.78
64937;SHT30;51452;47.698;19.050;2023-03-23T09:16:44;15.33;49.26
64937;SHT30;51452;47.698;19.050;2023-03-23T09:19:10;15.49;49.71
64937;SHT30;51452;47.698;19.050;2023-03-23T09:21:38;15.61;48.63
64937;SHT30;51452;47.698;19.050;2023-03-23T09:24:04;15.75;49.19
64937;SHT30;51452;47.698;19.050;2023-03-23T09:26:31;15.97;48.72
64937;SHT30;51452;47.698;19.050;2023-03-23T09:28:56;16.16;48.48
64937;SHT30;51452;47.698;19.050;2023-03-23T09:31:23;16.16;47.68
64937;SHT30;51452;47.698;19.050;2023-03-23T09:33:51;16.26;47.82
64937;SHT30;51452;47.698;19.050;2023-03-23T09:36:18;16.35;46.64
64937;SHT30;51452;47.698;19.050;2023-03-23T09:38:47;16.46;46.77
64937;SHT30;51452;47.698;19.050;2023-03-23T09:47:20;16.76;46.24
64937;SHT30;51452;47.698;19.050;2023-03-23T09:50:00;16.80;45.71
64937;SHT30;51452;47.698;19.050;2023-03-23T09:52:51;16.96;46.58
64937;SHT30;51452;47.698;19.050;2023-03-23T09:55:18;17.15;44.91
64937;SHT30;51452;47.698;19.050;2023-03-23T09:57:54;17.00;43.74
64937;SHT30;51452;47.698;19.050;2023-03-23T10:03:06;17.32;44.19
64937;SHT30;51452;47.698;19.050;2023-03-23T10:05:34;17.48;44.37
64937;SHT30;51452;47.698;19.050;2023-03-23T10:08:01;17.62;44.16
64937;SHT30;51452;47.698;19.050;2023-03-23T10:11:00;17.66;44.88
64937;SHT30;51452;47.698;19.050;2023-03-23T10:13:47;17.78;44.51
64937;SHT30;51452;47.698;19.050;2023-03-23T10:16:25;17.81;43.71
64937;SHT30;51452;47.698;19.050;2023-03-23T10:19:24;17.78;43.99
64937;SHT30;51452;47.698;19.050;2023-03-23T10:21:57;17.89;43.70
64937;SHT30;51452;47.698;19.050;2023-03-23T10:24:49;17.78;42.83
64937;SHT30;51452;47.698;19.050;2023-03-23T10:29:57;17.68;42.56
64937;SHT30;51452;47.698;19.050;2023-03-23T10:32:48;17.69;42.95
64937;SHT30;51452;47.698;19.050;2023-03-23T10:38:25;17.95;43.23
64937;SHT30;51452;47.698;19.050;2023-03-23T10:40:57;18.07;43.06
64937;SHT30;51452;47.698;19.050;2023-03-23T10:43:24;18.26;43.41
64937;SHT30;51452;47.698;19.050;2023-03-23T10:46:05;18.34;42.07
64937;SHT30;51452;47.698;19.050;2023-03-23T10:48:35;18.44;42.01
64937;SHT30;51452;47.698;19.050;2023-03-23T10:51:04;18.50;41.94
64937;SHT30;51452;47.698;19.050;2023-03-23T10:53:51;18.50;42.74
64937;SHT30;51452;47.698;19.050;2023-03-23T10:58:55;18.53;42.38
64937;SHT30;51452;47.698;19.050;2023-03-23T11:01:30;18.53;42.41
64937;SHT30;51452;47.698;19.050;2023-03-23T11:03:56;18.64;42.33
64937;SHT30;51452;47.698;19.050;2023-03-23T11:06:28;18.53;41.38
64937;SHT30;51452;47.698;19.050;2023-03-23T11:09:17;18.65;42.29
64937;SHT30;51452;47.698;19.050;2023-03-23T11:11:51;18.68;42.07
64937;SHT30;51452;47.698;19.050;2023-03-23T11:14:27;18.60;42.13
64937;SHT30;51452;47.698;19.050;2023-03-23T11:16:55;18.81;42.09
64937;SHT30;51452;47.698;19.050;2023-03-23T11:19:33;18.74;41.82
64937;SHT30;51452;47.698;19.050;2023-03-23T11:24:40;18.63;42.73
64937;SHT30;51452;47.698;19.050;2023-03-23T11:27:07;18.63;42.44
64937;SHT30;51452;47.698;19.050;2023-03-23T11:29:34;18.61;42.48
64937;SHT30;51452;47.698;19.050;2023-03-23T11:34:34;18.20;43.06
64937;SHT30;51452;47.698;19.050;2023-03-23T11:37:23;18.13;43.80
64937;SHT30;51452;47.698;19.050;2023-03-23T11:39:58;18.20;44.49
64937;SHT30;51452;47.698;19.050;2023-03-23T11:42:37;18.33;44.25
64937;SHT30;51452;47.698;19.050;2023-03-23T11:45:36;18.37;44.43
64937;SHT30;51452;47.698;19.050;2023-03-23T11:56:17;18.47;43.13
64937;SHT30;51452;47.698;19.050;2023-03-23T11:58:45;18.41;43.49
64937;SHT30;51452;47.698;19.050;2023-03-23T12:12:15;18.95;42.51
64937;SHT30;51452;47.698;19.050;2023-03-23T12:15:24;18.81;42.35
64937;SHT30;51452;47.698;19.050;2023-03-23T12:20:46;18.91;42.33
64937;SHT30;51452;47.698;19.050;2023-03-23T12:23:24;19.04;42.66
64937;SHT30;51452;47.698;19.050;2023-03-23T12:34:01;19.27;41.27
64937;SHT30;51452;47.698;19.050;2023-03-23T12:45:04;19.55;40.54
64937;SHT30;51452;47.698;19.050;2023-03-23T12:47:39;19.66;39.68
64937;SHT30;51452;47.698;19.050;2023-03-23T12:55:19;19.77;39.92
64937;SHT30;51452;47.698;19.050;2023-03-23T12:58:01;19.76;39.77
64937;SHT30;51452;47.698;19.050;2023-03-23T13:03:49;19.69;39.23
64937;SHT30;51452;47.698;19.050;2023-03-23T13:06:38;19.80;40.13
64937;SHT30;51452;47.698;19.050;2023-03-23T13:11:49;19.88;39.60
64937;SHT30;51452;47.698;19.050;2023-03-23T13:22:54;20.01;39.75
64937;SHT30;51452;47.698;19.050;2023-03-23T13:25:37;20.03;38.53
64937;SHT30;51452;47.698;19.050;2023-03-23T13:28:04;20.13;38.98
64937;SHT30;51452;47.698;19.050;2023-03-23T13:30:30;20.17;38.79
64937;SHT30;51452;47.698;19.050;2023-03-23T13:33:06;20.22;39.11
64937;SHT30;51452;47.698;19.050;2023-03-23T13:35:38;20.29;38.83
64937;SHT30;51452;47.698;19.050;2023-03-23T13:38:33;20.29;38.87
64937;SHT30;51452;47.698;19.050;2023-03-23T13:41:06;20.31;38.33
64937;SHT30;51452;47.698;19.050;2023-03-23T13:43:34;20.35;38.56
64937;SHT30;51452;47.698;19.050;2023-03-23T13:46:08;20.41;38.44
64937;SHT30;51452;47.698;19.050;2023-03-23T13:48:49;20.39;38.19
64937;SHT30;51452;47.698;19.050;2023-03-23T13:51:33;20.44;38.09
64937;SHT30;51452;47.698;19.050;2023-03-23T13:56:47;20.51;38.62
64937;SHT30;51452;47.698;19.050;2023-03-23T13:59:15;20.44;37.54
64937;SHT30;51452;47.698;19.050;2023-03-23T14:01:42;20.58;38.66
64937;SHT30;51452;47.698;19.050;2023-03-23T14:04:31;20.59;38.76
64937;SHT30;51452;47.698;19.050;2023-03-23T14:07:09;20.72;37.95
64937;SHT30;51452;47.698;19.050;2023-03-23T14:09:41;20.75;38.04
64937;SHT30;51452;47.698;19.050;2023-03-23T14:12:49;20.82;37.56
64937;SHT30;51452;47.698;19.050;2023-03-23T14:15:12;20.75;38.10
64937;SHT30;51452;47.698;19.050;2023-03-23T14:17:42;20.79;37.94
64937;SHT30;51452;47.698;19.050;2023-03-23T14:20:20;20.82;37.80
64937;SHT30;51452;47.698;19.050;2023-03-23T14:22:53;20.82;37.60
64937;SHT30;51452;47.698;19.050;2023-03-23T14:25:20;20.89;37.09
64937;SHT30;51452;47.698;19.050;2023-03-23T14:27:47;20.96;37.35
64937;SHT30;51452;47.698;19.050;2023-03-23T14:30:22;21.02;37.17
64937;SHT30;51452;47.698;19.050;2023-03-23T14:32:48;21.07;37.45
64937;SHT30;51452;47.698;19.050;2023-03-23T14:35:27;21.02;36.72
64937;SHT30;51452;47.698;19.050;2023-03-23T14:37:54;21.06;36.76
64937;SHT30;51452;47.698;19.050;2023-03-23T14:40:20;20.97;37.62
64937;SHT30;51452;47.698;19.050;2023-03-23T14:42:46;21.00;37.09
64937;SHT30;51452;47.698;19.050;2023-03-23T14:45:16;20.99;37.00
64937;SHT30;51452;47.698;19.050;2023-03-23T14:47:50;20.96;37.30
64937;SHT30;51452;47.698;19.050;2023-03-23T14:52:57;20.95;36.81
64937;SHT30;51452;47.698;19.050;2023-03-23T14:55:23;20.95;37.35
64937;SHT30;51452;47.698;19.050;2023-03-23T14:57:49;20.92;37.80
64937;SHT30;51452;47.698;19.050;2023-03-23T15:00:24;20.80;37.15
64937;SHT30;51452;47.698;19.050;2023-03-23T15:02:55;20.79;37.34
64937;SHT30;51452;47.698;19.050;2023-03-23T15:05:26;20.79;37.78
64937;SHT30;51452;47.698;19.050;2023-03-23T15:07:55;20.72;38.22
64937;SHT30;51452;47.698;19.050;2023-03-23T15:10:23;20.61;37.80
64937;SHT30;51452;47.698;19.050;2023-03-23T15:12:49;20.46;37.74
64937;SHT30;51452;47.698;19.050;2023-03-23T15:15:29;20.38;38.08
64937;SHT30;51452;47.698;19.050;2023-03-23T15:17:56;20.36;38.33
64937;SHT30;51452;47.698;19.050;2023-03-23T15:20:31;20.28;38.23
64937;SHT30;51452;47.698;19.050;2023-03-23T15:23:06;20.22;38.06
64937;SHT30;51452;47.698;19.050;2023-03-23T15:25:34;20.31;38.74
64937;SHT30;51452;47.698;19.050;2023-03-23T15:30:32;20.32;38.24
64937;SHT30;51452;47.698;19.050;2023-03-23T15:33:11;20.34;37.98
64937;SHT30;51452;47.698;19.050;2023-03-23T15:35:40;20.38;38.31
64937;SHT30;51452;47.698;19.050;2023-03-23T15:38:16;20.35;38.74
64937;SHT30;51452;47.698;19.050;2023-03-23T15:40:43;20.17;38.63
64937;SHT30;51452;47.698;19.050;2023-03-23T15:46:02;19.94;38.72
64937;SHT30;51452;47.698;19.050;2023-03-23T15:51:16;19.91;39.41
64937;SHT30;51452;47.698;19.050;2023-03-23T15:53:43;19.88;39.18
64937;SHT30;51452;47.698;19.050;2023-03-23T15:56:11;19.88;39.33
64937;SHT30;51452;47.698;19.050;2023-03-23T15:58:38;19.86;39.65
64937;SHT30;51452;47.698;19.050;2023-03-23T16:01:11;19.80;39.70
64937;SHT30;51452;47.698;19.050;2023-03-23T16:06:14;19.65;39.34
64937;SHT30;51452;47.698;19.050;2023-03-23T16:08:41;19.56;39.79
64937;SHT30;51452;47.698;19.050;2023-03-23T16:11:10;19.47;40.21
64937;SHT30;51452;47.698;19.050;2023-03-23T16:13:36;19.42;40.48
64937;SHT30;51452;47.698;19.050;2023-03-23T16:16:01;19.39;40.62
64937;SHT30;51452;47.698;19.050;2023-03-23T16:18:29;19.27;40.47
64937;SHT30;51452;47.698;19.050;2023-03-23T16:20:55;19.20;40.82
64937;SHT30;51452;47.698;19.050;2023-03-23T16:23:21;19.20;41.10
64937;SHT30;51452;47.698;19.050;2023-03-23T16:25:47;19.09;41.04
64937;SHT30;51452;47.698;19.050;2023-03-23T16:28:14;19.09;41.19
64937;SHT30;51452;47.698;19.050;2023-03-23T16:30:41;18.99;41.70
64937;SHT30;51452;47.698;19.050;2023-03-23T16:33:06;18.96;41.34
64937;SHT30;51452;47.698;19.050;2023-03-23T16:35:32;18.87;42.16
64937;SHT30;51452;47.698;19.050;2023-03-23T16:37:58;18.69;43.44
64937;SHT30;51452;47.698;19.050;2023-03-23T16:40:24;18.56;43.49
64937;SHT30;51452;47.698;19.050;2023-03-23T16:42:49;18.44;43.44
64937;SHT30;51452;47.698;19.050;2023-03-23T16:45:16;18.33;43.84
64937;SHT30;51452;47.698;19.050;2023-03-23T16:47:42;18.23;44.39
64937;SHT30;51452;47.698;19.050;2023-03-23T16:50:12;18.05;44.53
64937;SHT30;51452;47.698;19.050;2023-03-23T16:52:39;17.93;44.77
64937;SHT30;51452;47.698;19.050;2023-03-23T16:55:05;17.83;44.91
64937;SHT30;51452;47.698;19.050;2023-03-23T16:57:32;17.71;44.91
64937;SHT30;51452;47.698;19.050;2023-03-23T16:59:59;17.62;45.14
64937;SHT30;51452;47.698;19.050;2023-03-23T17:02:25;17.52;45.31
64937;SHT30;51452;47.698;19.050;2023-03-23T17:04:50;17.37;45.54
64937;SHT30;51452;47.698;19.050;2023-03-23T17:07:15;17.37;45.81
64937;SHT30;51452;47.698;19.050;2023-03-23T17:09:41;17.27;45.94
64937;SHT30;51452;47.698;19.050;2023-03-23T17:12:07;17.18;45.86
64937;SHT30;51452;47.698;19.050;2023-03-23T17:14:32;17.10;46.21
64937;SHT30;51452;47.698;19.050;2023-03-23T17:16:58;17.04;46.29
64937;SHT30;51452;47.698;19.050;2023-03-23T17:19:24;16.94;46.47
64937;SHT30;51452;47.698;19.050;2023-03-23T17:21:49;16.86;46.62
64937;SHT30;51452;47.698;19.050;2023-03-23T17:24:16;16.70;47.33
64937;SHT30;51452;47.698;19.050;2023-03-23T17:26:41;16.60;47.61
64937;SHT30;51452;47.698;19.050;2023-03-23T17:29:07;16.57;47.77
64937;SHT30;51452;47.698;19.050;2023-03-23T17:31:32;16.53;47.70
64937;SHT30;51452;47.698;19.050;2023-03-23T17:33:58;16.56;47.51
64937;SHT30;51452;47.698;19.050;2023-03-23T17:36:23;16.53;47.90